Flight Track Log - Related Links

Times and Time Zones

All times are in EST time to prevent confusion due to time zone crossing. See the N152SR flight status page for this flight to view local times or setup timezone preferences in your user account.

Time Position Orientation Groundspeed Altitude Reporting Facility
EST Latitude Longitude Course Direction KTS MPH feet Rate Location/Type
Sat 10:00:24 AM 39.1500 -84.0500 67° East 219 252 3,000  Level Cincinnati TRACON
Sat 10:01:53 AM 39.1808 -83.9550 67° East 211 243 3,600 437 Climbing Indianapolis Center
Sat 10:02:55 AM 39.1958 -83.8847 75° East 208 239 4,100 484 Climbing Indianapolis Center
Sat 10:03:57 AM 39.2114 -83.8144 74° East 206 237 4,600 439 Climbing Indianapolis Center
Sat 10:04:58 AM 39.2272 -83.7472 73° East 200 230 5,000 439 Climbing Indianapolis Center
Sat 10:06:00 AM 39.2422 -83.6772 75° East 202 232 5,500 244 Climbing Indianapolis Center
Sat 10:07:01 AM 39.2572 -83.6069 75° East 203 234 5,500  Level Indianapolis Center
Sat 10:08:03 AM 39.2778 -83.5161 74° East 217 250 5,500  Level Indianapolis Center
Sat 10:09:05 AM 39.2931 -83.4406 75° East 219 252 5,500  Level Indianapolis Center
Sat 10:10:06 AM 39.3097 -83.3650 74° East 220 253 5,500  Level Indianapolis Center
Sat 10:11:08 AM 39.3256 -83.2892 75° East 220 253 5,500  Level Indianapolis Center
Sat 10:12:09 AM 39.3428 -83.2139 73° East 220 253 5,500  Level Indianapolis Center
Sat 10:13:11 AM 39.3589 -83.1394 74° East 218 251 5,500  Level Indianapolis Center
Sat 10:14:13 AM 39.3747 -83.0644 75° East 217 250 5,500  Level Indianapolis Center
Sat 10:15:14 AM 39.3933 -82.9753 75° East 216 249 5,500  Level Indianapolis Center
Sat 10:16:16 AM 39.4092 -82.8997 75° East 217 250 5,500 -38 Level Indianapolis Center
Sat 10:17:51 AM 39.4339 -82.7836 75° East 212 244 5,400 38 Descending Cleveland Center
Sat 10:18:53 AM 39.4494 -82.7097 75° East 212 244 5,600 98 Climbing Cleveland Center
Sat 10:19:54 AM 39.4653 -82.6372 74° East 212 244 5,600  Level Cleveland Center
Sat 10:20:55 AM 39.4803 -82.5664 75° East 209 241 5,600  Level Cleveland Center
Sat 10:21:56 AM 39.4944 -82.4969 75° East 205 236 5,600 -66 Level Cleveland Center
Sat 10:22:26 AM 39.5022 -82.4572 76° East 202 232 5,500 -65 Descending Indianapolis Center
Sat 10:23:28 AM 39.5161 -82.3881 75° East 200 230 5,500  Level Indianapolis Center
Sat 10:24:30 AM 39.5300 -82.3186 75° East 200 230 5,500 -49 Level Indianapolis Center
Sat 10:25:31 AM 39.5444 -82.2472 75° East 203 234 5,400  Descending Indianapolis Center
Sat 10:27:03 AM 39.5703 -82.1306 74° East 207 238 5,500 49 Climbing Cleveland Center
Sat 10:27:34 AM 39.5756 -82.1000 77° East 208 239 5,500  Level Indianapolis Center
Sat 10:28:36 AM 39.5908 -82.0253 75° East 211 243 5,500  Level Indianapolis Center
Sat 10:29:38 AM 39.6056 -81.9514 75° East 212 244 5,500  Level Indianapolis Center
Sat 10:30:39 AM 39.6228 -81.8639 76° East 209 241 5,500  Level Indianapolis Center
Sat 10:31:41 AM 39.6369 -81.7917 76° East 207 238 5,500  Level Indianapolis Center
Sat 10:32:43 AM 39.6519 -81.7164 75° East 211 243 5,500  Level Indianapolis Center
Sat 10:33:44 AM 39.6667 -81.6425 75° East 211 243 5,500  Level Indianapolis Center
Sat 10:34:46 AM 39.6819 -81.5708 74° East 208 239 5,500  Level Indianapolis Center
Sat 10:35:48 AM 39.6986 -81.4894 75° East 210 242 5,500  Level Indianapolis Center
Sat 10:36:49 AM 39.7106 -81.4233 77° East 210 242 5,500  Level Indianapolis Center
Sat 10:37:51 AM 39.7256 -81.3486 75° East 212 244 5,500  Level Indianapolis Center
Sat 10:38:52 AM 39.7397 -81.2756 76° East 211 243 5,500  Level Indianapolis Center
Sat 10:39:54 AM 39.7564 -81.1858 76° East 210 242 5,500  Level Indianapolis Center
Sat 10:40:56 AM 39.7711 -81.1133 75° East 210 242 5,500  Level Indianapolis Center
Sat 10:41:57 AM 39.7850 -81.0394 76° East 210 242 5,500  Level Indianapolis Center
Sat 10:44:25 AM 39.8178 -80.8606 77° East 239 275 5,500  Level Indianapolis Center
Sat 10:45:27 AM 39.8328 -80.7917 74° East 207 238 5,500  Level Indianapolis Center
Sat 10:46:28 AM 39.8478 -80.7203 75° East 206 237 5,500  Level Indianapolis Center
Sat 10:47:30 AM 39.8603 -80.6314 80° East 208 239 5,500  Level Indianapolis Center
Sat 10:48:33 AM 39.8775 -80.5644 71° East 207 238 5,500  Level Cleveland Center
Sat 10:49:34 AM 39.8917 -80.4931 75° East 206 237 5,500  Level Cleveland Center
Sat 10:50:36 AM 39.9064 -80.4214 75° East 207 238 5,500  Level Cleveland Center
Sat 10:51:37 AM 39.9194 -80.3494 77° East 206 237 5,500  Level Cleveland Center
Sat 10:52:39 AM 39.9356 -80.2619 76° East 207 238 5,500  Level Cleveland Center
Sat 10:53:40 AM 39.9494 -80.1900 76° East 207 238 5,500  Level Cleveland Center
Sat 10:54:42 AM 39.9625 -80.1189 77° East 205 236 5,500  Level Cleveland Center
Sat 10:55:43 AM 39.9758 -80.0464 76° East 206 237 5,500  Level Cleveland Center
Sat 10:56:45 AM 39.9889 -79.9747 77° East 206 237 5,500  Level Cleveland Center
Sat 10:57:46 AM 40.0011 -79.9017 78° East 207 238 5,500  Level Cleveland Center
Sat 10:58:48 AM 40.0150 -79.8311 76° East 204 235 5,500 -87 Level Cleveland Center
Sat 10:58:55 AM 40.0175 -79.8053 83° East 207 238 5,400 -140 Descending Cleveland Center
Sat 10:59:31 AM 40.0253 -79.7656 76° East 207 238 5,400 109 Level Cleveland Center
Sat 10:59:50 AM 40.0306 -79.7444 72° East 205 236 5,500  Climbing Cleveland Center
Sat 11:00:32 AM 40.0381 -79.6936 79° East 205 236 5,400 98 Descending Cleveland Center
Sat 11:00:51 AM 40.0433 -79.6722 72° East 205 236 5,600 98 Climbing Cleveland Center
Sat 11:01:33 AM 40.0528 -79.6222 76° East 204 235 5,500  Descending Cleveland Center
Sat 11:01:53 AM 40.0561 -79.6006 79° East 205 236 5,600  Climbing Cleveland Center
Sat 11:02:33 AM 40.0658 -79.5447 77° East 205 236 5,500 -98 Descending Cleveland Center
Sat 11:02:54 AM 40.0692 -79.5283 75° East 206 237 5,500  Level Cleveland Center
Sat 11:03:34 AM 40.0783 -79.4731 78° East 205 236 5,500  Level Cleveland Center
Sat 11:03:56 AM 40.0825 -79.4567 72° East 205 236 5,500  Level Cleveland Center
Sat 11:04:34 AM 40.0908 -79.4011 79° East 206 237 5,500  Level Cleveland Center
Sat 11:04:57 AM 40.0950 -79.3825 74° East 209 241 5,500  Level Cleveland Center
Sat 11:05:35 AM 40.1031 -79.3292 79° East 207 238 5,500 97 Level Cleveland Center
Sat 11:05:59 AM 40.1097 -79.2997 74° East 205 236 5,600  Climbing Cleveland Center
Sat 11:06:36 AM 40.1181 -79.2519 77° East 207 238 5,500  Descending Cleveland Center
Sat 11:07:00 AM 40.1225 -79.2278 76° East 205 236 5,600  Climbing Cleveland Center
Sat 11:07:36 AM 40.1306 -79.1800 78° East 206 237 5,500  Descending Cleveland Center
Sat 11:08:02 AM 40.1356 -79.1542 76° East 208 239 5,600  Climbing Cleveland Center
Sat 11:08:37 AM 40.1431 -79.1053 79° East 210 242 5,500  Descending Cleveland Center
Sat 11:09:03 AM 40.1481 -79.0806 75° East 208 239 5,600  Climbing Cleveland Center
Sat 11:09:38 AM 40.1553 -79.0331 79° East 210 242 5,500  Descending Cleveland Center
Sat 11:10:05 AM 40.1606 -79.0050 76° East 212 244 5,600  Climbing Cleveland Center
Sat 11:10:50 AM 40.1714 -78.9397 78° East 211 243 5,500  Descending Cleveland Center
Sat 11:11:06 AM 40.1742 -78.9331 61° Northeast 208 239 5,600  Climbing Cleveland Center
Sat 11:11:45 AM 40.1831 -78.8731 79° East 210 242 5,500  Descending Cleveland Center
Sat 11:12:07 AM 40.1892 -78.8414 76° East 213 245 5,600  Climbing Cleveland Center
Sat 11:12:46 AM 40.1958 -78.7928 80° East 210 242 5,500  Descending Cleveland Center
Sat 11:13:09 AM 40.2022 -78.7692 70° East 208 239 5,600  Climbing Cleveland Center
Sat 11:13:46 AM 40.2078 -78.7206 81° East 208 239 5,500  Descending Cleveland Center
Sat 11:14:10 AM 40.2142 -78.6947 72° East 209 241 5,600  Climbing Cleveland Center
Sat 11:14:47 AM 40.2219 -78.6486 78° East 207 238 5,500  Descending Cleveland Center
Sat 11:15:12 AM 40.2275 -78.6228 74° East 207 238 5,600  Climbing Cleveland Center
Sat 11:15:47 AM 40.2339 -78.5764 80° East 208 239 5,500  Descending Cleveland Center
Sat 11:16:13 AM 40.2386 -78.5492 77° East 207 238 5,600  Climbing Cleveland Center
Sat 11:16:48 AM 40.2464 -78.4961 79° East 210 242 5,500  Descending Cleveland Center
Sat 11:17:14 AM 40.2517 -78.4753 72° East 210 242 5,600  Climbing Cleveland Center
Sat 11:17:49 AM 40.2583 -78.4239 80° East 210 242 5,500  Descending Cleveland Center
Sat 11:18:16 AM 40.2639 -78.3997 73° East 211 243 5,600  Climbing Cleveland Center
Sat 11:18:49 AM 40.2725 -78.3492 77° East 210 242 5,500  Descending Cleveland Center
Sat 11:19:17 AM 40.2767 -78.3256 77° East 210 242 5,600  Climbing Cleveland Center
Sat 11:19:50 AM 40.2842 -78.2767 79° East 210 242 5,500  Descending Cleveland Center
Sat 11:20:18 AM 40.2925 -78.2386 74° East 209 241 5,600  Climbing Cleveland Center
Sat 11:20:50 AM 40.2986 -78.1967 79° East 209 241 5,500  Descending Cleveland Center
Sat 11:21:20 AM 40.3031 -78.1636 80° East 209 241 5,600  Climbing Cleveland Center
Sat 11:21:51 AM 40.3103 -78.1242 76° East 209 241 5,500  Descending Cleveland Center
Sat 11:22:21 AM 40.3153 -78.0894 79° East 210 242 5,600  Climbing Cleveland Center
Sat 11:22:52 AM 40.3222 -78.0492 77° East 209 241 5,500  Descending Cleveland Center
Sat 11:23:22 AM 40.3275 -78.0172 78° East 206 237 5,600 65 Climbing Cleveland Center
Sat 11:24:24 AM 40.3386 -77.9436 79° East 206 237 5,600 -98 Level Cleveland Center
Sat 11:25:25 AM 40.3514 -77.8692 77° East 208 239 5,400 -98 Descending Cleveland Center
Sat 11:26:26 AM 40.3644 -77.7950 77° East 210 242 5,400  Level Cleveland Center
Sat 11:27:27 AM 40.3786 -77.7092 78° East 207 238 5,400  Level Cleveland Center
Sat 11:28:29 AM 40.3878 -77.6411 80° East 199 229 5,400 -49 Level Cleveland Center
Sat 11:29:30 AM 40.3997 -77.5683 78° East 200 230 5,300  Descending Cleveland Center
Sat 11:30:31 AM 40.4114 -77.4956 78° East 204 235 5,400 49 Climbing Cleveland Center
Sat 11:31:32 AM 40.4236 -77.4233 77° East 205 236 5,400  Level Cleveland Center
Sat 11:32:34 AM 40.4342 -77.3517 79° East 203 234 5,400  Level Cleveland Center
Sat 11:33:35 AM 40.4469 -77.2792 77° East 204 235 5,400  Level Cleveland Center
Sat 11:34:36 AM 40.4597 -77.2072 77° East 204 235 5,400 Level Cleveland Center
Sat 12:03:38 PM 40.7667 -75.1000 76° East 204 235 5,500 Climbing New York TRACON
Sat 12:04:00 PM 40.7409 -75.1545 80° East  Level FlightAware Approximate
Sat 12:04:38 PM 40.7667 -75.0333 90° East 201 231 5,500  Level New York TRACON
Sat 12:05:00 PM 40.7506 -75.0845 80° East  Level FlightAware Approximate
Sat 12:05:38 PM 40.7833 -74.9667 72° East 204 235 5,500  Level New York TRACON
Sat 12:06:00 PM 40.7601 -75.0146 80° East  Level FlightAware Approximate
Sat 12:06:38 PM 40.8000 -74.8833 75° East 210 242 5,100  Level New York TRACON
Sat 12:07:00 PM 40.7708 -74.9449 76° East  Level FlightAware Approximate
Sat 12:07:44 PM 40.8167 -74.8000 75° East 215 247 4,200  Level New York TRACON
Sat 12:08:00 PM 40.7837 -74.8760 76° East  Level FlightAware Approximate
Sat 12:08:38 PM 40.8333 -74.7500 66° East 210 242 3,600  Level New York TRACON
Sat 12:09:38 PM 40.8333 -74.6667 90° East 191 220 3,600 -100 Level New York TRACON
Sat 12:10:38 PM 40.8500 -74.6167 66° East 179 206 3,400 -368 Descending New York TRACON
Sat 12:11:32 PM 40.8500 -74.5500 90° East 170 196 2,900 -579 Descending New York TRACON
Sat 12:12:32 PM 40.8667 -74.5000 66° East 144 166 2,300 -429 Descending New York TRACON
Sat 12:13:38 PM 40.8833 -74.4667 57° Northeast 121 139 2,000 -190 Descending New York TRACON
Sat 12:14:38 PM 40.8833 -74.4167 90° East 115 132 1,900 -105 Descending New York TRACON
Sat 12:15:32 PM 40.8667 -74.3833 123° Southeast 106 122 1,800 -233 Descending New York TRACON
Sat 12:17:38 PM 40.8667 -74.3000 90° East 97 112 1,200 -286 Descending New York TRACON
Sat 12:19:00 PM 40.8752 -74.2814 78° East  Level Estimated
Sat 12:26:00 PM 40.8752 -74.2814 78° East  Level Estimated
Sat 12:27:00 PM 40.8752 -74.2814 78° East  Level Estimated

Login

Don't have an account? Register now (free) for customized features, flight alerts, and more!